Westwood Lakes, Florida
Current Conditions -  °F | °C
As of 4:53 PM on Friday 31 Oct 2014 (Local Time) from KTMB Reporting Station
Few Clouds Few Clouds  
Wind Chill: 87°   Ceiling: Unl
Heat Index: 88°   Visibility: 10mi
Dew Point: 64°   Wind: 13mph
Humidity: 46%   Direction: 270°W
Pressure: 29.78"   Gusts: NA
Location:  25.72°N, 80.37°W
Report Text: KTMB 312053Z 27011KT 10SM FEW048 31/18 A2978 RMK AO2 SLP085 T03060178 55009
Loading
Personal Weather Stations






























Interactive Weather Map
Tropical Storm Tracking
New forecast layout! Learn more

10-Day Weather Forecast

Advertisements
Track Severe Weather on mobile